createdAt,value
2022-09-13T00:02:09.343Z,1.75
2022-09-13T00:04:58.721Z,2.05
2022-09-13T00:07:47.663Z,1.60
2022-09-13T00:10:37.591Z,1.65
2022-09-13T00:13:26.462Z,1.52
2022-09-13T00:16:21.435Z,1.77
2022-09-13T00:19:11.812Z,2.40
2022-09-13T00:22:00.726Z,2.10
2022-09-13T00:24:50.032Z,1.88
2022-09-13T00:27:39.615Z,1.88
2022-09-13T00:30:28.966Z,2.15
2022-09-13T00:33:19.539Z,1.80
2022-09-13T00:36:09.808Z,1.67
2022-09-13T00:38:59.126Z,1.63
2022-09-13T00:41:48.303Z,1.75
2022-09-13T00:44:57.911Z,1.90
2022-09-13T00:47:53.029Z,1.88
2022-09-13T00:50:46.562Z,1.70
2022-09-13T00:53:38.087Z,4.15
2022-09-13T00:56:32.428Z,1.60
2022-09-13T00:59:25.928Z,1.92
2022-09-13T01:02:15.963Z,1.75
2022-09-13T01:05:05.788Z,2.33
2022-09-13T01:07:56.323Z,1.90
2022-09-13T01:10:46.165Z,1.92
2022-09-13T01:13:37.017Z,1.75
2022-09-13T01:16:26.379Z,1.45
2022-09-13T01:19:15.011Z,1.40
2022-09-13T01:22:46.153Z,2.05
2022-09-13T01:26:15.059Z,1.30
2022-09-13T01:29:27.689Z,1.65
2022-09-13T01:32:24.777Z,1.50
2022-09-13T01:35:23.387Z,1.40
2022-09-13T01:38:25.408Z,1.42
2022-09-13T01:41:29.195Z,1.65
2022-09-13T01:44:29.143Z,1.42
2022-09-13T01:47:27.130Z,1.48
2022-09-13T01:50:21.308Z,1.27
2022-09-13T01:53:21.731Z,1.50
2022-09-13T01:56:19.806Z,1.20
2022-09-13T01:59:16.053Z,1.48
2022-09-13T02:02:10.157Z,1.63
2022-09-13T02:05:04.499Z,1.20
2022-09-13T02:07:58.981Z,1.30
2022-09-13T02:10:50.862Z,1.13
2022-09-13T02:13:42.980Z,1.38
2022-09-13T02:16:36.651Z,1.27
2022-09-13T02:19:34.112Z,1.40
2022-09-13T02:22:32.197Z,1.30
2022-09-13T02:25:24.599Z,0.98
2022-09-13T02:28:18.824Z,1.02
2022-09-13T02:31:10.452Z,1.10
2022-09-13T02:34:03.604Z,1.02
2022-09-13T02:36:56.596Z,1.23
2022-09-13T02:39:52.746Z,1.40
2022-09-13T02:42:46.491Z,1.20
2022-09-13T02:45:43.748Z,1.10
2022-09-13T02:48:41.608Z,1.15
2022-09-13T02:51:40.273Z,0.93
2022-09-13T02:54:34.328Z,1.63
2022-09-13T02:57:32.423Z,1.50
2022-09-13T03:00:21.566Z,1.25
2022-09-13T03:03:12.295Z,1.33
2022-09-13T03:06:02.594Z,1.83
2022-09-13T03:08:52.236Z,1.73
2022-09-13T03:11:46.977Z,2.10
2022-09-13T03:14:43.891Z,2.45
2022-09-13T03:17:42.049Z,2.33
2022-09-13T03:20:35.833Z,2.00
2022-09-13T03:23:34.867Z,1.40
2022-09-13T03:26:27.898Z,1.95
2022-09-13T03:29:25.219Z,1.70
2022-09-13T03:32:21.858Z,2.17
2022-09-13T03:35:17.428Z,2.50
2022-09-13T03:38:09.250Z,2.00
2022-09-13T03:41:00.107Z,2.00
2022-09-13T03:43:51.264Z,2.10
2022-09-13T03:46:43.311Z,1.85
2022-09-13T03:49:34.406Z,2.15
2022-09-13T03:52:24.308Z,1.70
2022-09-13T03:55:13.042Z,1.88
2022-09-13T03:58:01.970Z,2.00
2022-09-13T04:00:50.544Z,1.85
2022-09-13T04:03:40.490Z,1.90
2022-09-13T04:06:31.321Z,1.60
2022-09-13T04:09:20.568Z,1.33
2022-09-13T04:12:11.239Z,1.90
2022-09-13T04:15:00.602Z,1.70
2022-09-13T04:17:49.794Z,1.65
2022-09-13T04:20:39.110Z,1.60
2022-09-13T04:23:31.241Z,1.40
2022-09-13T04:26:20.586Z,1.27
2022-09-13T04:29:09.666Z,1.45
2022-09-13T04:31:58.861Z,1.40
2022-09-13T04:34:47.771Z,1.58
2022-09-13T04:37:36.835Z,1.27
2022-09-13T04:40:27.117Z,1.45
2022-09-13T04:43:16.052Z,1.23
2022-09-13T04:46:05.030Z,1.30
2022-09-13T04:48:54.560Z,1.35
2022-09-13T04:51:43.214Z,1.67
2022-09-13T04:54:32.375Z,1.25
2022-09-13T04:57:22.932Z,1.23
2022-09-13T05:00:12.977Z,1.10
2022-09-13T05:03:02.305Z,1.17
2022-09-13T05:05:51.454Z,1.13
2022-09-13T05:08:41.436Z,1.35
2022-09-13T05:11:31.106Z,1.38
2022-09-13T05:14:21.621Z,1.65
2022-09-13T05:17:11.605Z,1.20
2022-09-13T05:20:00.795Z,1.30
2022-09-13T05:22:50.078Z,1.80
2022-09-13T05:25:39.731Z,1.38
2022-09-13T05:28:30.416Z,1.70
2022-09-13T05:31:22.421Z,1.65
2022-09-13T05:34:13.659Z,1.48
2022-09-13T05:37:03.193Z,1.48
2022-09-13T05:40:11.703Z,1.33
2022-09-13T05:43:01.855Z,1.42
2022-09-13T05:45:50.831Z,1.75
2022-09-13T05:48:42.446Z,1.70
2022-09-13T05:51:31.545Z,1.45
2022-09-13T05:54:20.360Z,1.80
2022-09-13T05:57:09.268Z,1.55
2022-09-13T05:59:58.352Z,1.40
2022-09-13T06:02:47.425Z,2.00
2022-09-13T06:05:38.219Z,1.75
2022-09-13T06:08:28.034Z,1.92
2022-09-13T06:11:17.442Z,1.23
2022-09-13T06:14:06.397Z,1.65
2022-09-13T06:16:54.822Z,1.48
2022-09-13T06:19:44.962Z,1.42
2022-09-13T06:22:35.385Z,1.77
2022-09-13T06:25:24.103Z,1.25
2022-09-13T06:28:13.138Z,1.17
2022-09-13T06:31:03.771Z,1.50
2022-09-13T06:33:58.645Z,1.70
2022-09-13T06:36:47.854Z,1.23
2022-09-13T06:39:38.693Z,1.25
2022-09-13T06:42:28.052Z,1.50
2022-09-13T06:45:17.402Z,1.38
2022-09-13T06:48:06.517Z,1.83
2022-09-13T06:50:59.263Z,1.42
2022-09-13T06:53:49.209Z,1.13
2022-09-13T06:56:40.018Z,1.40
2022-09-13T06:59:29.457Z,1.70
2022-09-13T07:02:18.790Z,1.60
2022-09-13T07:05:08.627Z,1.58
2022-09-13T07:07:57.645Z,1.40
2022-09-13T07:10:46.956Z,1.63
2022-09-13T07:13:37.817Z,2.42
2022-09-13T07:16:28.725Z,1.25
2022-09-13T07:19:19.293Z,1.50
2022-09-13T07:22:08.454Z,1.27
2022-09-13T07:24:57.706Z,1.45
2022-09-13T07:27:46.490Z,1.95
2022-09-13T07:30:38.407Z,1.65
2022-09-13T07:33:27.923Z,1.60
2022-09-13T07:36:16.591Z,1.73
2022-09-13T07:39:06.233Z,2.05
2022-09-13T07:41:55.752Z,2.20
2022-09-13T07:44:44.599Z,2.90
2022-09-13T07:47:36.468Z,3.88
2022-09-13T07:50:25.557Z,3.10
2022-09-13T07:53:14.506Z,3.17
2022-09-13T07:56:06.295Z,2.67
2022-09-13T07:58:56.544Z,2.50
2022-09-13T08:01:46.949Z,3.20
2022-09-13T08:04:37.784Z,3.90
2022-09-13T08:07:26.616Z,3.53
2022-09-13T08:10:16.052Z,3.42
2022-09-13T08:13:05.097Z,3.38
2022-09-13T08:15:54.318Z,2.90
2022-09-13T08:18:46.533Z,2.95
2022-09-13T08:21:37.561Z,2.40
2022-09-13T08:24:26.802Z,3.53
2022-09-13T08:27:15.880Z,3.35
2022-09-13T08:30:05.324Z,2.83
2022-09-13T08:32:54.717Z,2.67
2022-09-13T08:35:44.146Z,2.38
2022-09-13T08:38:34.913Z,2.80
2022-09-13T08:41:30.267Z,2.40
2022-09-13T08:44:23.674Z,2.63
2022-09-13T08:47:32.559Z,3.28
2022-09-13T08:50:25.543Z,2.65
2022-09-13T08:53:20.933Z,2.42
2022-09-13T08:56:13.514Z,2.25
2022-09-13T08:59:18.353Z,3.30
2022-09-13T09:02:21.956Z,2.83
2022-09-13T09:05:17.962Z,3.70
2022-09-13T09:08:13.853Z,3.80
2022-09-13T09:11:07.848Z,2.83
2022-09-13T09:14:05.929Z,4.20
2022-09-13T09:16:59.420Z,4.70
2022-09-13T09:19:50.746Z,3.63
2022-09-13T09:22:40.151Z,4.97
2022-09-13T09:25:29.209Z,7.05
2022-09-13T09:28:19.956Z,5.07
2022-09-13T09:31:17.225Z,3.88
2022-09-13T09:34:16.277Z,4.05
2022-09-13T09:37:13.015Z,5.13
2022-09-13T09:40:04.705Z,3.92
2022-09-13T09:42:54.709Z,5.10
2022-09-13T09:45:46.535Z,4.22
2022-09-13T09:48:42.850Z,4.75
2022-09-13T09:51:33.340Z,3.60
2022-09-13T09:54:23.895Z,5.10
2022-09-13T09:57:15.417Z,4.53
2022-09-13T10:00:12.330Z,5.47
2022-09-13T10:03:02.867Z,5.00
2022-09-13T10:05:53.469Z,4.45
2022-09-13T10:08:44.102Z,4.93
2022-09-13T10:11:46.932Z,4.68
2022-09-13T10:14:40.098Z,3.10
2022-09-13T10:17:30.146Z,4.10
2022-09-13T10:20:26.749Z,6.22
2022-09-13T10:23:23.071Z,3.22
2022-09-13T10:26:13.320Z,4.63
2022-09-13T10:29:08.057Z,2.20
2022-09-13T10:31:58.983Z,2.05
2022-09-13T10:34:49.917Z,3.03
2022-09-13T10:37:43.631Z,3.03
2022-09-13T10:40:38.904Z,4.35
2022-09-13T10:43:31.088Z,2.45
2022-09-13T10:46:24.998Z,1.83
2022-09-13T10:49:29.005Z,2.05
2022-09-13T10:52:31.231Z,2.05
2022-09-13T10:55:34.288Z,2.50
2022-09-13T10:58:23.330Z,1.98
2022-09-13T11:01:40.266Z,2.17
2022-09-13T11:04:49.007Z,4.13
2022-09-13T11:08:02.088Z,2.08
2022-09-13T11:10:58.378Z,2.35
2022-09-13T11:13:54.251Z,2.13
2022-09-13T11:16:47.683Z,4.45
2022-09-13T11:19:44.267Z,2.25
2022-09-13T11:22:43.386Z,2.90
2022-09-13T11:25:44.550Z,2.50
2022-09-13T11:28:43.424Z,2.55
2022-09-13T11:31:43.022Z,2.03
2022-09-13T11:34:37.864Z,1.95
2022-09-13T11:37:37.861Z,2.22
2022-09-13T11:40:51.435Z,2.08
2022-09-13T11:43:56.595Z,3.55
2022-09-13T11:46:52.152Z,3.00
2022-09-13T11:50:11.848Z,2.20
2022-09-13T11:53:16.788Z,3.10
2022-09-13T11:56:09.788Z,1.60
2022-09-13T11:59:13.600Z,2.88
2022-09-13T12:02:06.210Z,2.08
2022-09-13T12:05:20.517Z,2.33
2022-09-13T12:08:09.260Z,1.55
2022-09-13T12:10:58.909Z,2.22
2022-09-13T12:13:51.809Z,3.28
2022-09-13T12:16:45.062Z,2.00
2022-09-13T12:19:39.623Z,2.50
2022-09-13T12:22:30.953Z,2.05
2022-09-13T12:25:24.271Z,1.85
2022-09-13T12:28:19.352Z,1.60
2022-09-13T12:31:16.114Z,1.60
2022-09-13T12:34:10.931Z,1.73
2022-09-13T12:37:11.987Z,1.88
2022-09-13T12:40:18.537Z,1.75
2022-09-13T12:43:29.797Z,1.20
2022-09-13T12:46:35.904Z,1.27
2022-09-13T12:49:40.697Z,2.03
2022-09-13T12:52:38.268Z,1.85
2022-09-13T12:55:53.067Z,1.70
2022-09-13T12:59:17.148Z,1.10
2022-09-13T13:02:32.448Z,1.20
2022-09-13T13:05:30.459Z,1.58
2022-09-13T13:08:29.550Z,2.95
2022-09-13T13:11:20.546Z,1.13
2022-09-13T13:14:29.330Z,1.33
2022-09-13T13:17:48.752Z,1.48
2022-09-13T13:20:49.315Z,1.50
2022-09-13T13:23:39.636Z,1.15
2022-09-13T13:26:47.041Z,0.95
2022-09-13T13:29:36.429Z,1.10
2022-09-13T13:32:25.392Z,1.10
2022-09-13T13:35:33.149Z,1.13
2022-09-13T13:38:48.242Z,0.85
2022-09-13T13:41:46.391Z,1.17
2022-09-13T13:45:06.682Z,0.95
2022-09-13T13:48:16.696Z,1.40
2022-09-13T13:51:29.973Z,0.90
2022-09-13T13:54:53.885Z,1.00
2022-09-13T13:57:51.738Z,0.90
2022-09-13T14:00:48.797Z,1.10
2022-09-13T14:03:54.034Z,1.10
2022-09-13T14:06:54.112Z,1.00
2022-09-13T14:09:54.142Z,1.00
2022-09-13T14:12:50.641Z,1.20
2022-09-13T14:15:51.476Z,1.65
2022-09-13T14:19:01.572Z,1.10
2022-09-13T14:22:08.075Z,1.40
2022-09-13T14:24:59.876Z,1.00
2022-09-13T14:27:50.224Z,0.90
2022-09-13T14:30:40.383Z,1.40
2022-09-13T14:33:32.593Z,1.00
2022-09-13T14:36:23.805Z,1.27
2022-09-13T14:39:12.889Z,1.13
2022-09-13T14:42:12.630Z,1.40
2022-09-13T14:45:01.327Z,1.30
2022-09-13T14:47:56.309Z,0.98
2022-09-13T14:50:56.456Z,0.95
2022-09-13T14:53:48.869Z,1.10
2022-09-13T14:56:42.616Z,1.13
2022-09-13T14:59:36.690Z,1.10
2022-09-13T15:02:27.577Z,1.20
2022-09-13T15:05:19.327Z,1.20
2022-09-13T15:08:25.461Z,0.90
2022-09-13T15:11:17.837Z,1.05
2022-09-13T15:14:24.504Z,0.95
2022-09-13T15:17:15.942Z,1.40
2022-09-13T15:20:06.787Z,1.30
2022-09-13T15:22:56.850Z,1.08
2022-09-13T15:25:54.125Z,1.00
2022-09-13T15:28:50.258Z,1.17
2022-09-13T15:31:39.745Z,1.10
2022-09-13T15:34:30.559Z,1.48
2022-09-13T15:37:20.731Z,1.17
2022-09-13T15:40:19.200Z,1.10
2022-09-13T15:43:08.592Z,1.50
2022-09-13T15:45:58.451Z,1.23
2022-09-13T15:48:52.745Z,0.90
2022-09-13T15:51:45.014Z,1.13
2022-09-13T15:54:34.947Z,1.38
2022-09-13T15:57:25.433Z,1.23
2022-09-13T16:00:17.343Z,1.52
2022-09-13T16:03:06.589Z,1.30
2022-09-13T16:05:55.513Z,1.10
2022-09-13T16:08:45.982Z,1.30
2022-09-13T16:11:34.811Z,1.63
2022-09-13T16:14:23.944Z,1.67
2022-09-13T16:17:14.298Z,1.40
2022-09-13T16:20:03.413Z,1.60
2022-09-13T16:22:52.916Z,1.48
2022-09-13T16:25:43.997Z,1.30
2022-09-13T16:28:33.080Z,1.02
2022-09-13T16:31:22.649Z,1.38
2022-09-13T16:34:12.173Z,1.20
2022-09-13T16:37:01.285Z,1.20
2022-09-13T16:39:50.820Z,1.40
2022-09-13T16:42:41.435Z,1.35
2022-09-13T16:45:30.503Z,1.40
2022-09-13T16:48:19.546Z,1.40
2022-09-13T16:51:10.981Z,1.10
2022-09-13T16:54:00.711Z,1.08
2022-09-13T16:56:50.114Z,1.20
2022-09-13T16:59:41.367Z,1.45
2022-09-13T17:02:30.366Z,1.35
2022-09-13T17:05:20.137Z,1.20
2022-09-13T17:08:09.504Z,1.35
2022-09-13T17:10:58.676Z,1.90
2022-09-13T17:13:47.643Z,1.65
2022-09-13T17:16:38.720Z,1.95
2022-09-13T17:19:31.702Z,1.30
2022-09-13T17:22:20.680Z,1.30
2022-09-13T17:25:10.462Z,1.33
2022-09-13T17:27:59.535Z,1.55
2022-09-13T17:30:49.114Z,1.65
2022-09-13T17:33:39.904Z,1.40
2022-09-13T17:36:29.081Z,1.52
2022-09-13T17:39:19.250Z,1.30
2022-09-13T17:42:08.891Z,1.50
2022-09-13T17:44:57.912Z,1.25
2022-09-13T17:47:46.931Z,1.27
2022-09-13T17:50:37.814Z,1.60
2022-09-13T17:53:27.799Z,1.60
2022-09-13T17:56:19.134Z,1.42
2022-09-13T17:59:10.744Z,1.63
2022-09-13T18:02:01.124Z,1.60
2022-09-13T18:04:52.458Z,1.30
2022-09-13T18:07:42.741Z,1.60
2022-09-13T18:10:58.053Z,1.60
2022-09-13T18:13:41.483Z,1.60
2022-09-13T18:16:31.649Z,1.73
2022-09-13T18:19:39.197Z,1.63
2022-09-13T18:22:30.080Z,1.98
2022-09-13T18:25:23.737Z,2.38
2022-09-13T18:28:13.243Z,1.67
2022-09-13T18:31:03.185Z,1.60
2022-09-13T18:33:56.807Z,2.10
2022-09-13T18:36:46.402Z,1.75
2022-09-13T18:39:35.969Z,2.08
2022-09-13T18:42:29.241Z,1.63
2022-09-13T18:45:22.162Z,1.90
2022-09-13T18:48:11.034Z,2.00
2022-09-13T18:51:00.663Z,2.00
2022-09-13T18:53:50.206Z,1.73
2022-09-13T18:56:39.002Z,1.90
2022-09-13T18:59:32.220Z,2.15
2022-09-13T19:02:21.179Z,2.65
2022-09-13T19:05:10.818Z,1.90
2022-09-13T19:08:00.172Z,2.22
2022-09-13T19:10:49.129Z,2.10
2022-09-13T19:13:39.208Z,2.28
2022-09-13T19:16:29.638Z,2.60
2022-09-13T19:19:18.734Z,2.90
2022-09-13T19:22:07.792Z,2.15
2022-09-13T19:24:56.933Z,2.88
2022-09-13T19:27:46.060Z,3.25
2022-09-13T19:30:36.443Z,2.20
2022-09-13T19:33:26.894Z,1.95
2022-09-13T19:36:17.872Z,2.25
2022-09-13T19:39:07.470Z,2.45
2022-09-13T19:41:56.613Z,2.80
2022-09-13T19:44:45.641Z,2.40
2022-09-13T19:50:45.882Z,2.28
2022-09-13T19:53:55.910Z,2.42
2022-09-13T19:56:45.479Z,2.45
2022-09-13T19:59:34.611Z,2.97
2022-09-13T20:02:23.834Z,2.58
2022-09-13T20:05:12.634Z,2.20
2022-09-13T20:08:03.313Z,2.00
2022-09-13T20:10:52.632Z,2.67
2022-09-13T20:13:42.075Z,2.53
2022-09-13T20:16:32.945Z,2.50
2022-09-13T20:19:40.652Z,2.40
2022-09-13T20:22:31.909Z,2.20
2022-09-13T20:25:24.081Z,2.53
2022-09-13T20:28:13.516Z,2.55
2022-09-13T20:31:02.624Z,2.42
2022-09-13T20:33:56.993Z,2.30
2022-09-13T20:36:47.275Z,1.80
2022-09-13T20:39:36.557Z,2.33
2022-09-13T20:42:27.277Z,1.98
2022-09-13T20:45:16.776Z,2.47
2022-09-13T20:48:05.766Z,2.33
2022-09-13T20:50:58.646Z,2.33
2022-09-13T20:53:48.214Z,2.00
2022-09-13T20:56:36.836Z,1.90
2022-09-13T20:59:27.228Z,2.28
2022-09-13T21:02:16.771Z,2.33
2022-09-13T21:05:06.524Z,2.33
2022-09-13T21:08:12.513Z,1.42
2022-09-13T21:11:03.655Z,1.88
2022-09-13T21:13:54.783Z,1.30
2022-09-13T21:16:45.408Z,1.40
2022-09-13T21:19:34.352Z,1.40
2022-09-13T21:22:24.881Z,1.13
2022-09-13T21:25:13.558Z,1.73
2022-09-13T21:28:03.089Z,1.50
2022-09-13T21:30:59.729Z,1.92
2022-09-13T21:33:50.477Z,1.45
2022-09-13T21:36:39.876Z,1.83
2022-09-13T21:39:29.925Z,1.30
2022-09-13T21:42:18.398Z,1.40
2022-09-13T21:45:08.648Z,1.33
2022-09-13T21:47:58.104Z,1.83
2022-09-13T21:50:48.723Z,1.67
2022-09-13T21:53:39.637Z,1.70
2022-09-13T21:56:30.476Z,1.75
2022-09-13T21:59:20.804Z,1.20
2022-09-13T22:02:09.694Z,1.65
2022-09-13T22:04:59.070Z,1.60
2022-09-13T22:07:49.788Z,1.42
2022-09-13T22:10:38.750Z,1.45
2022-09-13T22:13:28.066Z,1.25
2022-09-13T22:16:20.512Z,1.63
2022-09-13T22:19:12.147Z,1.70
2022-09-13T22:22:02.030Z,1.45
2022-09-13T22:24:52.563Z,1.73
2022-09-13T22:27:41.884Z,1.70
2022-09-13T22:30:31.130Z,1.70
2022-09-13T22:33:20.385Z,1.70
2022-09-13T22:36:11.347Z,1.90
2022-09-13T22:39:00.102Z,1.60
2022-09-13T22:41:50.435Z,1.45
2022-09-13T22:44:38.998Z,1.70
2022-09-13T22:47:28.928Z,2.13
2022-09-13T22:50:18.046Z,1.60
2022-09-13T22:53:07.507Z,1.83
2022-09-13T22:55:56.554Z,2.05
2022-09-13T22:58:47.446Z,1.70
2022-09-13T23:01:38.516Z,1.58
2022-09-13T23:04:27.905Z,1.60
2022-09-13T23:07:16.991Z,1.25
2022-09-13T23:10:06.820Z,1.40
2022-09-13T23:12:56.072Z,1.70
2022-09-13T23:15:46.654Z,1.40
2022-09-13T23:18:36.601Z,1.27
2022-09-13T23:21:28.637Z,1.70
2022-09-13T23:24:19.399Z,1.73
2022-09-13T23:27:08.500Z,1.60
2022-09-13T23:29:58.036Z,1.23
2022-09-13T23:32:51.654Z,1.17
2022-09-13T23:35:41.444Z,1.45
2022-09-13T23:38:30.375Z,1.58
2022-09-13T23:41:20.624Z,1.70
2022-09-13T23:44:09.960Z,1.48
2022-09-13T23:46:59.407Z,1.20
2022-09-13T23:49:50.067Z,1.30
2022-09-13T23:52:39.201Z,1.50
2022-09-13T23:55:28.260Z,1.40
2022-09-13T23:58:17.592Z,1.48
